Time;durP1;ratioP1;P1;durP2;ratioP2;P2;SDS_P1;SDS_P2;PMS_P1;PMS_P2;Temp;Humidity;BMP_temperature;BMP_pressure;BME280_temperature;BME280_humidity;BME280_pressure;Samples;Min_cycle;Max_cycle;Signal;HPM_P1;HPM_P2
2024/01/20 00:02:15;;;;;;;20.43;13.27;;;0.10;99.90;;;;;;5019718;28;20179;-66
2024/01/20 00:04:41;;;;;;;25.37;14.30;;;0.10;99.90;;;;;;5015019;28;20211;-66
2024/01/20 00:07:06;;;;;;;19.83;13.67;;;0.10;99.90;;;;;;5017941;28;20978;-65
2024/01/20 00:09:32;;;;;;;21.37;14.07;;;0.10;99.90;;;;;;5012974;28;20282;-66
2024/01/20 00:11:58;;;;;;;22.43;13.87;;;0.10;99.90;;;;;;5022069;28;20310;-66
2024/01/20 00:14:23;;;;;;;24.13;14.30;;;0.10;99.90;;;;;;5020785;28;20270;-66
2024/01/20 00:16:49;;;;;;;26.40;15.10;;;0.10;99.90;;;;;;5013160;28;20669;-66
2024/01/20 00:19:14;;;;;;;20.53;13.90;;;0.10;99.90;;;;;;5017584;28;20581;-66
2024/01/20 00:21:40;;;;;;;23.90;14.27;;;0.10;99.90;;;;;;5014010;28;20180;-66
2024/01/20 00:24:07;;;;;;;22.10;15.57;;;0.10;99.90;;;;;;5014388;28;20204;-66
2024/01/20 00:26:33;;;;;;;25.10;13.63;;;0.10;99.90;;;;;;5013274;28;20188;-66
2024/01/20 00:28:58;;;;;;;22.40;13.93;;;0.10;99.90;;;;;;5017681;28;20972;-66
2024/01/20 00:31:24;;;;;;;21.43;13.40;;;0.10;99.90;;;;;;5016267;28;20655;-67
2024/01/20 00:33:49;;;;;;;21.10;14.20;;;0.10;99.90;;;;;;5012228;28;20705;-66
2024/01/20 00:36:15;;;;;;;25.70;14.57;;;0.10;99.90;;;;;;5017750;28;20188;-67
2024/01/20 00:38:42;;;;;;;25.60;15.33;;;0.10;99.90;;;;;;5014839;28;20197;-67
2024/01/20 00:41:08;;;;;;;26.87;13.90;;;0.10;99.90;;;;;;5015067;28;20199;-67
2024/01/20 00:43:34;;;;;;;28.27;15.80;;;0.10;99.90;;;;;;5013890;28;20462;-67
2024/01/20 00:46:01;;;;;;;24.00;15.10;;;0.10;99.90;;;;;;5015636;28;20408;-67
2024/01/20 00:48:26;;;;;;;28.43;15.37;;;0.10;99.90;;;;;;5015290;28;20214;-67
2024/01/20 00:50:52;;;;;;;19.73;14.10;;;0.10;99.90;;;;;;5012472;28;20438;-67
2024/01/20 00:53:18;;;;;;;23.90;14.30;;;0.00;99.90;;;;;;5013796;28;20206;-67
2024/01/20 00:55:43;;;;;;;21.47;14.30;;;0.00;99.90;;;;;;5014099;28;20257;-67
2024/01/20 00:58:09;;;;;;;21.60;14.30;;;0.00;99.90;;;;;;5016459;28;20788;-67
2024/01/20 01:00:35;;;;;;;23.90;13.80;;;0.00;99.90;;;;;;5015671;28;20197;-67
2024/01/20 01:03:00;;;;;;;24.63;14.33;;;0.00;99.90;;;;;;5012944;28;20454;-67
2024/01/20 01:05:26;;;;;;;23.33;14.13;;;0.00;99.90;;;;;;5009352;28;20188;-67
2024/01/20 01:07:52;;;;;;;19.13;12.43;;;0.00;99.90;;;;;;5011283;28;20227;-67
2024/01/20 01:10:17;;;;;;;24.43;14.77;;;0.00;99.90;;;;;;5007880;28;20225;-67
2024/01/20 01:12:43;;;;;;;21.70;13.10;;;0.00;99.90;;;;;;5011844;28;20284;-67
2024/01/20 01:15:09;;;;;;;20.13;12.43;;;-0.10;99.90;;;;;;5013113;28;20214;-67
2024/01/20 01:17:34;;;;;;;22.23;13.67;;;-0.10;99.90;;;;;;5018339;28;20183;-67
2024/01/20 01:20:00;;;;;;;24.03;16.17;;;-0.10;99.90;;;;;;5015860;28;20414;-67
2024/01/20 01:22:26;;;;;;;26.13;13.13;;;-0.10;99.90;;;;;;5011033;28;20189;-67
2024/01/20 01:24:52;;;;;;;17.87;11.23;;;-0.20;99.90;;;;;;5019220;28;20496;-67
2024/01/20 01:27:17;;;;;;;20.67;13.87;;;-0.20;99.90;;;;;;5016912;28;20190;-67
2024/01/20 01:29:43;;;;;;;18.77;11.87;;;-0.20;99.90;;;;;;5014316;28;20813;-67
2024/01/20 01:32:08;;;;;;;19.83;13.07;;;-0.20;99.90;;;;;;5012220;28;20190;-67
2024/01/20 01:34:36;;;;;;;25.13;13.30;;;-0.20;99.90;;;;;;5012323;28;20297;-67
2024/01/20 01:37:01;;;;;;;24.40;13.73;;;-0.20;99.90;;;;;;5010198;28;20208;-67
2024/01/20 01:39:27;;;;;;;21.40;12.90;;;-0.30;99.90;;;;;;5010317;28;20817;-67
2024/01/20 01:41:52;;;;;;;19.60;12.77;;;-0.30;99.90;;;;;;5015437;28;20184;-67
2024/01/20 01:44:18;;;;;;;15.53;11.27;;;-0.30;99.90;;;;;;5014101;28;20620;-67
2024/01/20 01:46:44;;;;;;;18.27;11.57;;;-0.40;99.90;;;;;;5005732;28;20195;-67
2024/01/20 01:49:09;;;;;;;21.80;13.13;;;-0.40;99.90;;;;;;5015548;28;20257;-67
2024/01/20 01:51:35;;;;;;;19.40;12.00;;;-0.40;99.90;;;;;;5017714;28;20184;-67
2024/01/20 01:54:03;;;;;;;20.23;12.33;;;-0.40;99.90;;;;;;5014476;28;20195;-67
2024/01/20 01:56:30;;;;;;;17.97;12.00;;;-0.40;99.90;;;;;;5012229;28;20435;-66
2024/01/20 01:58:56;;;;;;;21.97;12.87;;;-0.50;99.90;;;;;;5013427;28;20419;-67
2024/01/20 02:01:22;;;;;;;20.33;13.67;;;-0.50;99.90;;;;;;5020551;28;20416;-66
2024/01/20 02:03:48;;;;;;;21.23;13.63;;;-0.50;99.90;;;;;;5018416;28;20971;-67
2024/01/20 02:06:13;;;;;;;20.23;13.53;;;-0.60;99.90;;;;;;5012939;28;20253;-66
2024/01/20 02:08:40;;;;;;;25.03;13.80;;;-0.60;99.90;;;;;;5013254;28;20458;-66
2024/01/20 02:11:07;;;;;;;22.90;14.47;;;-0.60;99.90;;;;;;5012303;28;20196;-66
2024/01/20 02:13:33;;;;;;;21.07;13.27;;;-0.70;99.90;;;;;;5016283;28;20438;-67
2024/01/20 02:16:00;;;;;;;20.87;13.40;;;-0.80;99.90;;;;;;5011935;28;20883;-67
2024/01/20 02:18:26;;;;;;;23.00;14.07;;;-0.80;99.90;;;;;;5022942;28;20496;-67
2024/01/20 02:20:51;;;;;;;18.80;13.47;;;-0.80;99.90;;;;;;5012194;28;20532;-66
2024/01/20 02:23:17;;;;;;;28.17;15.93;;;-0.80;99.90;;;;;;5017691;28;20195;-66
2024/01/20 02:25:42;;;;;;;24.50;15.73;;;-0.80;99.90;;;;;;5015808;28;20183;-67
2024/01/20 02:28:08;;;;;;;25.00;15.80;;;-0.90;99.90;;;;;;5019036;28;20203;-66
2024/01/20 02:30:33;;;;;;;26.50;15.43;;;-0.90;99.90;;;;;;5016901;28;20368;-66
2024/01/20 02:32:59;;;;;;;25.93;17.23;;;-0.90;99.90;;;;;;5013724;28;20227;-66
2024/01/20 02:35:25;;;;;;;28.70;18.93;;;-0.90;99.90;;;;;;5016814;28;20369;-66
2024/01/20 02:37:50;;;;;;;27.30;17.37;;;-0.90;99.90;;;;;;5015505;28;20198;-67
2024/01/20 02:40:16;;;;;;;26.00;17.50;;;-0.90;99.90;;;;;;5012289;28;20260;-67
2024/01/20 02:42:42;;;;;;;27.23;16.90;;;-0.90;99.90;;;;;;5010954;28;20191;-67
2024/01/20 02:45:08;;;;;;;33.60;17.33;;;-0.90;99.90;;;;;;5011527;28;20450;-67
2024/01/20 02:47:33;;;;;;;29.47;18.50;;;-0.90;99.90;;;;;;5013689;28;20248;-67
2024/01/20 02:49:59;;;;;;;25.87;16.40;;;-0.90;99.90;;;;;;5014802;28;20206;-67
2024/01/20 02:52:25;;;;;;;27.00;15.67;;;-0.90;99.90;;;;;;5013187;28;20179;-67
2024/01/20 02:54:50;;;;;;;33.00;17.00;;;-0.90;99.90;;;;;;5010796;28;20237;-67
2024/01/20 02:57:17;;;;;;;28.20;17.27;;;-1.00;99.90;;;;;;5017383;28;20183;-67
2024/01/20 02:59:42;;;;;;;27.10;16.30;;;-1.00;99.90;;;;;;5012890;28;20189;-67
2024/01/20 03:02:08;;;;;;;26.27;15.87;;;-1.00;99.90;;;;;;5012658;28;20423;-67
2024/01/20 03:04:33;;;;;;;27.60;16.40;;;-1.00;99.90;;;;;;5012169;28;20204;-67
2024/01/20 03:06:59;;;;;;;27.40;17.20;;;-1.00;99.90;;;;;;5013264;28;20273;-67
2024/01/20 03:09:25;;;;;;;27.10;15.00;;;-1.00;99.90;;;;;;5014406;28;20290;-67
2024/01/20 03:11:50;;;;;;;28.23;16.23;;;-1.00;99.90;;;;;;5011703;28;20179;-67
2024/01/20 03:14:16;;;;;;;24.93;14.50;;;-1.00;99.90;;;;;;5006789;28;20212;-66
2024/01/20 03:16:41;;;;;;;29.67;15.70;;;-1.00;99.90;;;;;;5011522;28;20177;-67
2024/01/20 03:19:07;;;;;;;27.13;16.40;;;-1.00;99.90;;;;;;5009360;28;20256;-67
2024/01/20 03:21:33;;;;;;;31.23;15.30;;;-1.00;99.90;;;;;;5012986;28;20193;-67
2024/01/20 03:23:59;;;;;;;23.73;14.90;;;-1.00;99.90;;;;;;5010901;28;20560;-67
2024/01/20 03:26:25;;;;;;;19.50;13.17;;;-1.00;99.90;;;;;;5008282;28;20418;-67
2024/01/20 03:28:50;;;;;;;22.80;14.17;;;-1.00;99.90;;;;;;5011530;28;20217;-67
2024/01/20 03:31:16;;;;;;;25.73;13.27;;;-1.10;99.90;;;;;;5008811;28;20704;-67
2024/01/20 03:33:42;;;;;;;22.13;13.50;;;-1.10;99.90;;;;;;5007781;28;20242;-67
2024/01/20 03:36:09;;;;;;;20.23;14.13;;;-1.10;99.90;;;;;;5012021;28;20421;-67
2024/01/20 03:38:35;;;;;;;29.37;16.07;;;-1.10;99.90;;;;;;5011399;28;20276;-67
2024/01/20 03:41:00;;;;;;;24.13;13.87;;;-1.10;99.90;;;;;;5010751;28;20791;-67
2024/01/20 03:43:26;;;;;;;25.53;15.57;;;-1.10;99.90;;;;;;5013143;28;20573;-67
2024/01/20 03:45:53;;;;;;;24.87;14.60;;;-1.10;99.90;;;;;;5011707;28;20177;-67
2024/01/20 03:48:19;;;;;;;24.00;13.40;;;-1.10;99.90;;;;;;5019735;28;20177;-67
2024/01/20 03:50:44;;;;;;;25.47;14.60;;;-1.20;99.90;;;;;;5012910;28;20514;-67
2024/01/20 03:53:10;;;;;;;26.63;13.40;;;-1.20;99.90;;;;;;5009734;28;20182;-66
2024/01/20 03:55:36;;;;;;;24.40;13.13;;;-1.20;99.90;;;;;;5015130;28;20188;-67
2024/01/20 03:58:02;;;;;;;25.10;15.30;;;-1.20;99.90;;;;;;5010809;28;20177;-67
2024/01/20 04:00:28;;;;;;;30.40;14.80;;;-1.20;99.90;;;;;;5010297;28;20195;-67
2024/01/20 04:02:53;;;;;;;25.10;15.00;;;-1.20;99.90;;;;;;5010572;28;20424;-67
2024/01/20 04:05:19;;;;;;;23.77;15.70;;;-1.20;99.90;;;;;;5010610;28;20184;-67
2024/01/20 04:07:45;;;;;;;25.50;14.23;;;-1.20;99.90;;;;;;5017960;28;20202;-67
2024/01/20 04:10:11;;;;;;;28.47;14.60;;;-1.30;99.90;;;;;;5016756;28;20202;-67
2024/01/20 04:12:39;;;;;;;28.10;15.03;;;-1.40;99.90;;;;;;5012426;28;20862;-67
2024/01/20 04:15:05;;;;;;;28.43;14.30;;;-1.40;99.90;;;;;;5018681;28;20582;-66
2024/01/20 04:17:30;;;;;;;22.10;14.00;;;-1.50;99.90;;;;;;5013219;28;20411;-66
2024/01/20 04:19:56;;;;;;;24.67;14.40;;;-1.50;99.90;;;;;;5016742;28;20442;-67
2024/01/20 04:22:21;;;;;;;27.33;15.70;;;-1.60;99.90;;;;;;5013505;28;20209;-67
2024/01/20 04:24:47;;;;;;;23.67;13.90;;;-1.60;99.90;;;;;;5021764;28;20295;-67
2024/01/20 04:27:12;;;;;;;26.73;17.77;;;-1.70;99.90;;;;;;5014137;28;20227;-67
2024/01/20 04:29:38;;;;;;;30.23;17.10;;;-1.70;99.90;;;;;;5016627;28;20215;-67
2024/01/20 04:32:04;;;;;;;25.73;16.40;;;-1.70;99.90;;;;;;5010621;28;20648;-67
2024/01/20 04:34:30;;;;;;;23.00;14.27;;;-1.80;99.90;;;;;;5012238;28;20590;-67
2024/01/20 04:36:55;;;;;;;29.97;16.00;;;-1.80;99.90;;;;;;5018316;28;20416;-67
2024/01/20 04:39:21;;;;;;;27.10;14.73;;;-1.80;99.90;;;;;;5013974;28;20186;-67
2024/01/20 04:41:46;;;;;;;18.73;13.13;;;-1.80;99.90;;;;;;5013566;28;20185;-67
2024/01/20 04:44:12;;;;;;;22.93;14.37;;;-1.80;99.90;;;;;;5013312;28;20204;-67
2024/01/20 04:46:38;;;;;;;23.10;13.63;;;-1.90;99.90;;;;;;5011234;28;20189;-67
2024/01/20 04:49:03;;;;;;;27.10;15.80;;;-1.90;99.90;;;;;;5008322;28;20209;-67
2024/01/20 04:51:29;;;;;;;30.97;16.60;;;-1.90;99.90;;;;;;5015902;28;20323;-67
2024/01/20 04:53:54;;;;;;;26.77;16.20;;;-1.90;99.90;;;;;;5021814;28;20200;-67
2024/01/20 04:56:20;;;;;;;23.33;15.00;;;-1.90;99.90;;;;;;5023042;28;20180;-67
2024/01/20 04:58:46;;;;;;;23.40;14.17;;;-2.00;99.90;;;;;;5013218;28;20312;-67
2024/01/20 05:01:12;;;;;;;22.90;14.23;;;-2.00;99.90;;;;;;5016943;28;20591;-67
2024/01/20 05:03:37;;;;;;;21.57;13.33;;;-2.00;99.90;;;;;;5018628;28;20444;-67
2024/01/20 05:06:04;;;;;;;19.80;13.10;;;-2.00;99.90;;;;;;5017241;28;20179;-67
2024/01/20 05:08:30;;;;;;;21.87;12.87;;;-2.00;99.90;;;;;;5017662;28;20199;-67
2024/01/20 05:10:55;;;;;;;18.17;12.50;;;-2.10;99.90;;;;;;5019352;28;20444;-67
2024/01/20 05:13:21;;;;;;;23.00;14.73;;;-2.10;99.90;;;;;;5015235;28;20206;-66
2024/01/20 05:15:46;;;;;;;19.80;12.77;;;-2.00;99.90;;;;;;5015983;28;20188;-67
2024/01/20 05:18:12;;;;;;;20.77;13.97;;;-2.00;99.90;;;;;;5011143;28;20184;-67
2024/01/20 05:20:37;;;;;;;25.80;14.40;;;-2.00;99.90;;;;;;5011939;28;20220;-67
2024/01/20 05:23:03;;;;;;;23.03;14.67;;;-2.00;99.90;;;;;;5017372;28;20173;-67
2024/01/20 05:25:29;;;;;;;23.27;14.13;;;-2.00;99.90;;;;;;5013550;28;20648;-67
2024/01/20 05:27:55;;;;;;;21.87;14.20;;;-2.00;99.90;;;;;;5014121;28;20366;-66
2024/01/20 05:30:21;;;;;;;30.20;16.23;;;-2.00;99.90;;;;;;5012173;28;20198;-66
2024/01/20 05:32:47;;;;;;;25.60;15.30;;;-2.00;99.90;;;;;;5020690;28;20424;-66
2024/01/20 05:35:13;;;;;;;26.53;15.03;;;-2.00;99.90;;;;;;5012469;28;20282;-66
2024/01/20 05:37:39;;;;;;;23.93;13.77;;;-2.00;99.90;;;;;;5016649;28;20523;-67
2024/01/20 05:40:05;;;;;;;25.20;15.23;;;-2.00;99.90;;;;;;5014875;28;20507;-67
2024/01/20 05:42:31;;;;;;;24.80;15.10;;;-2.00;99.90;;;;;;5013014;28;20208;-67
2024/01/20 05:44:57;;;;;;;24.03;15.00;;;-2.10;99.90;;;;;;5015706;28;20930;-67
2024/01/20 05:47:22;;;;;;;25.60;15.57;;;-2.10;99.90;;;;;;5013729;28;20469;-66
2024/01/20 05:49:48;;;;;;;26.30;14.97;;;-2.10;99.90;;;;;;5014841;28;20219;-66
2024/01/20 05:52:13;;;;;;;26.87;15.37;;;-2.10;99.90;;;;;;5015245;28;20296;-67
2024/01/20 05:54:39;;;;;;;26.30;15.30;;;-2.10;99.90;;;;;;5011792;28;20193;-67
2024/01/20 05:57:05;;;;;;;25.13;14.00;;;-2.10;99.90;;;;;;5008730;28;20190;-67
2024/01/20 05:59:30;;;;;;;26.37;14.87;;;-2.10;99.90;;;;;;5011941;28;20184;-67
2024/01/20 06:01:56;;;;;;;26.47;14.73;;;-2.10;99.90;;;;;;5015559;28;20186;-67
2024/01/20 06:04:22;;;;;;;23.50;15.10;;;-2.10;99.90;;;;;;5015436;28;20200;-67
2024/01/20 06:06:48;;;;;;;24.30;14.63;;;-2.10;99.90;;;;;;5008379;28;20497;-67
2024/01/20 06:09:14;;;;;;;25.53;16.20;;;-2.10;99.90;;;;;;5010780;28;20795;-67
2024/01/20 06:11:40;;;;;;;24.40;15.43;;;-2.10;99.90;;;;;;5015015;28;20550;-66
2024/01/20 06:14:06;;;;;;;24.93;14.03;;;-2.10;99.90;;;;;;5019237;28;20205;-66
2024/01/20 06:16:33;;;;;;;32.87;17.77;;;-2.10;99.90;;;;;;5022905;28;20418;-66
2024/01/20 06:18:59;;;;;;;24.70;15.97;;;-2.10;99.90;;;;;;5018055;28;20646;-66
2024/01/20 06:21:25;;;;;;;28.60;17.03;;;-2.00;99.90;;;;;;5017716;28;20420;-66
2024/01/20 06:23:50;;;;;;;24.27;15.53;;;-2.00;99.90;;;;;;5012575;28;20219;-67
2024/01/20 06:26:16;;;;;;;28.23;16.43;;;-2.10;99.90;;;;;;5011687;28;20268;-67
2024/01/20 06:28:43;;;;;;;23.10;14.93;;;-2.10;99.90;;;;;;5010229;28;20424;-67
2024/01/20 06:31:09;;;;;;;21.40;13.17;;;-2.10;99.90;;;;;;5017706;28;20184;-67
2024/01/20 06:33:34;;;;;;;23.77;14.50;;;-2.10;99.90;;;;;;5011711;28;20452;-67
2024/01/20 06:36:00;;;;;;;24.37;14.80;;;-2.10;99.90;;;;;;5012510;28;20421;-67
2024/01/20 06:38:28;;;;;;;26.27;13.93;;;-2.10;99.90;;;;;;5011368;28;20253;-67
2024/01/20 06:40:54;;;;;;;28.10;13.20;;;-2.10;99.90;;;;;;5013470;28;20754;-67
2024/01/20 06:43:19;;;;;;;23.37;13.87;;;-2.20;99.90;;;;;;5010321;28;20447;-67
2024/01/20 06:45:46;;;;;;;27.97;13.60;;;-2.20;99.90;;;;;;5010900;28;20184;-67
2024/01/20 06:48:11;;;;;;;26.80;14.40;;;-2.10;99.90;;;;;;5012612;28;20195;-66
2024/01/20 06:50:43;;;;;;;20.33;14.17;;;-2.10;99.90;;;;;;5009287;28;20464;-66
2024/01/20 06:53:09;;;;;;;26.03;15.13;;;-2.10;99.90;;;;;;5014389;28;20953;-66
2024/01/20 06:55:34;;;;;;;27.60;15.57;;;-2.10;99.90;;;;;;5008944;28;20414;-66
2024/01/20 06:58:00;;;;;;;23.83;16.70;;;-2.10;99.90;;;;;;5010437;28;20406;-68
2024/01/20 07:00:26;;;;;;;23.30;15.00;;;-2.10;99.90;;;;;;5010790;28;20207;-66
2024/01/20 07:02:51;;;;;;;25.00;14.77;;;-2.10;99.90;;;;;;5014786;28;20262;-66
2024/01/20 07:05:17;;;;;;;26.93;16.13;;;-2.10;99.90;;;;;;5010381;28;20200;-67
2024/01/20 07:07:42;;;;;;;27.00;15.60;;;-2.10;99.90;;;;;;5016892;28;20269;-67
2024/01/20 07:10:08;;;;;;;25.60;16.73;;;-2.20;99.90;;;;;;5011712;28;20242;-67
2024/01/20 07:12:35;;;;;;;29.43;16.77;;;-2.10;99.90;;;;;;5010099;28;20181;-66
2024/01/20 07:15:00;;;;;;;31.80;17.10;;;-2.10;99.90;;;;;;5015491;28;20431;-66
2024/01/20 07:17:26;;;;;;;25.77;16.13;;;-2.10;99.90;;;;;;5009572;28;20427;-67
2024/01/20 07:19:51;;;;;;;26.80;16.47;;;-2.10;99.90;;;;;;5009550;28;20185;-67
2024/01/20 07:22:17;;;;;;;24.57;13.50;;;-2.10;99.90;;;;;;5005347;28;20642;-66
2024/01/20 07:24:43;;;;;;;29.10;15.87;;;-2.00;99.90;;;;;;5013715;28;20602;-67
2024/01/20 07:27:09;;;;;;;25.00;14.93;;;-2.00;99.90;;;;;;5011406;28;20498;-67
2024/01/20 07:29:34;;;;;;;26.03;15.03;;;-2.00;99.90;;;;;;5011369;28;20710;-67
2024/01/20 07:32:00;;;;;;;23.83;13.97;;;-2.00;99.90;;;;;;5009056;28;20618;-67
2024/01/20 07:34:25;;;;;;;23.17;15.00;;;-2.00;99.90;;;;;;5006475;28;20258;-67
2024/01/20 07:36:51;;;;;;;23.03;13.40;;;-2.00;99.90;;;;;;5009210;28;20179;-67
2024/01/20 07:39:17;;;;;;;22.40;13.10;;;-2.00;99.90;;;;;;5013100;28;20571;-66
2024/01/20 07:41:42;;;;;;;21.13;12.90;;;-2.00;99.90;;;;;;5010917;28;20173;-66
2024/01/20 07:44:08;;;;;;;19.90;12.60;;;-2.10;99.90;;;;;;5013045;28;20532;-67
2024/01/20 07:46:33;;;;;;;18.20;11.63;;;-2.10;99.90;;;;;;5015197;28;20259;-67
2024/01/20 07:48:59;;;;;;;23.57;12.37;;;-2.10;99.90;;;;;;5016554;28;20211;-67
2024/01/20 07:51:24;;;;;;;17.17;11.97;;;-2.10;99.90;;;;;;5012349;28;20169;-67
2024/01/20 07:53:50;;;;;;;17.27;10.50;;;-2.10;99.90;;;;;;5011718;28;20197;-67
2024/01/20 07:56:16;;;;;;;16.10;10.07;;;-2.10;99.90;;;;;;5016567;28;20185;-67
2024/01/20 07:58:44;;;;;;;19.90;10.70;;;-2.10;99.90;;;;;;5014621;28;20174;-66
2024/01/20 08:01:15;;;;;;;14.20;9.60;;;-2.10;99.90;;;;;;5017116;28;20180;-67
2024/01/20 08:03:41;;;;;;;13.90;10.20;;;-2.10;99.90;;;;;;5015400;28;20452;-67
2024/01/20 08:06:07;;;;;;;18.03;10.83;;;-2.10;99.90;;;;;;5011721;28;20479;-66
2024/01/20 08:08:33;;;;;;;16.40;11.03;;;-2.10;99.90;;;;;;5013941;28;20189;-66
2024/01/20 08:10:59;;;;;;;18.30;11.03;;;-2.10;99.90;;;;;;5011045;28;20201;-66
2024/01/20 08:13:25;;;;;;;15.60;9.70;;;-2.10;99.90;;;;;;5016645;28;20958;-67
2024/01/20 08:15:50;;;;;;;16.10;10.80;;;-2.00;99.90;;;;;;5010276;28;20255;-66
2024/01/20 08:18:16;;;;;;;19.03;11.57;;;-2.10;99.90;;;;;;5016399;28;20272;-66
2024/01/20 08:20:41;;;;;;;24.13;12.07;;;-2.00;99.90;;;;;;5012854;28;20185;-66
2024/01/20 08:23:07;;;;;;;16.63;11.20;;;-2.00;99.90;;;;;;5019200;28;20182;-66
2024/01/20 08:25:33;;;;;;;19.23;13.30;;;-2.00;99.90;;;;;;5008479;28;20208;-66
2024/01/20 08:27:58;;;;;;;19.73;12.40;;;-2.00;99.90;;;;;;5016055;28;20182;-66
2024/01/20 08:30:24;;;;;;;21.37;13.13;;;-2.00;99.90;;;;;;5007587;28;20212;-66
2024/01/20 08:32:49;;;;;;;22.00;12.00;;;-2.00;99.90;;;;;;5016977;28;20181;-66
2024/01/20 08:35:15;;;;;;;23.23;12.50;;;-2.00;99.90;;;;;;5010937;28;20223;-66
2024/01/20 08:37:40;;;;;;;25.30;13.50;;;-2.00;99.90;;;;;;5023606;28;20751;-67
2024/01/20 08:40:06;;;;;;;23.80;13.97;;;-2.10;99.90;;;;;;5011141;28;20248;-66
2024/01/20 08:42:32;;;;;;;21.73;12.83;;;-2.00;99.90;;;;;;5008954;28;20232;-67
2024/01/20 08:44:58;;;;;;;24.13;13.97;;;-2.10;99.90;;;;;;5011527;28;20983;-67
2024/01/20 08:47:23;;;;;;;24.40;13.50;;;-2.00;99.90;;;;;;5012826;28;20658;-67
2024/01/20 08:49:51;;;;;;;19.03;12.30;;;-2.00;99.90;;;;;;5011466;28;20705;-67
2024/01/20 08:52:17;;;;;;;22.30;13.10;;;-2.00;99.90;;;;;;5011235;28;20180;-67
2024/01/20 08:54:43;;;;;;;18.27;12.03;;;-2.00;99.90;;;;;;5017548;28;20447;-67
2024/01/20 08:57:09;;;;;;;22.67;13.40;;;-1.90;99.90;;;;;;5019226;28;20483;-67
2024/01/20 08:59:34;;;;;;;25.93;13.60;;;-1.90;99.90;;;;;;5016194;28;20174;-67
2024/01/20 09:02:00;;;;;;;23.23;12.67;;;-1.90;99.90;;;;;;5016284;28;20589;-67
2024/01/20 09:04:25;;;;;;;21.70;12.77;;;-1.80;99.90;;;;;;5016063;28;20236;-67
2024/01/20 09:06:51;;;;;;;16.57;11.63;;;-1.80;99.90;;;;;;5016293;28;20205;-67
2024/01/20 09:09:18;;;;;;;18.93;12.30;;;-1.70;99.90;;;;;;5012409;28;20201;-66
2024/01/20 09:11:43;;;;;;;27.73;14.57;;;-1.70;99.90;;;;;;5014065;28;20596;-67
2024/01/20 09:14:09;;;;;;;17.07;12.07;;;-1.70;99.90;;;;;;5017809;28;20537;-67
2024/01/20 09:16:35;;;;;;;24.23;13.63;;;-1.60;99.90;;;;;;5018132;28;20435;-67
2024/01/20 09:19:00;;;;;;;26.47;13.73;;;-1.50;99.90;;;;;;5010943;28;20272;-67
2024/01/20 09:21:26;;;;;;;19.10;11.97;;;-1.40;99.90;;;;;;5016814;28;20237;-67
2024/01/20 09:23:51;;;;;;;23.63;13.07;;;-1.30;99.90;;;;;;5010752;28;20228;-67
2024/01/20 09:26:17;;;;;;;26.00;15.23;;;-1.20;99.90;;;;;;5016024;28;20186;-68
2024/01/20 09:28:42;;;;;;;20.23;11.70;;;-1.10;99.90;;;;;;5010336;28;20258;-67
2024/01/20 09:31:08;;;;;;;26.77;12.87;;;-1.00;99.90;;;;;;5019347;28;20610;-66
2024/01/20 09:33:34;;;;;;;16.33;11.33;;;-0.90;99.90;;;;;;5010621;28;20249;-67
2024/01/20 09:36:02;;;;;;;20.00;12.20;;;-0.80;99.90;;;;;;5015157;28;20545;-67
2024/01/20 09:38:28;;;;;;;17.80;11.10;;;-0.80;99.90;;;;;;5009812;28;20189;-67
2024/01/20 09:40:58;;;;;;;20.07;11.40;;;-0.70;99.90;;;;;;5011090;28;20525;-67
2024/01/20 09:43:25;;;;;;;20.33;11.03;;;-0.60;99.90;;;;;;5017532;28;20467;-66
2024/01/20 09:45:52;;;;;;;16.63;11.33;;;-0.60;99.90;;;;;;5010010;28;20435;-67
2024/01/20 09:48:18;;;;;;;18.27;11.33;;;-0.50;99.90;;;;;;5011011;28;20432;-67
2024/01/20 09:50:44;;;;;;;21.73;12.43;;;-0.50;99.90;;;;;;5007540;28;20465;-67
2024/01/20 09:53:14;;;;;;;17.37;10.57;;;-0.50;99.90;;;;;;5008983;28;20443;-67
2024/01/20 09:55:42;;;;;;;18.33;10.40;;;-0.40;99.90;;;;;;5008468;28;20437;-67
2024/01/20 09:58:11;;;;;;;17.67;11.00;;;-0.40;99.90;;;;;;5010717;28;20414;-67
2024/01/20 10:00:38;;;;;;;19.40;12.30;;;-0.40;99.90;;;;;;5006221;28;20431;-67
2024/01/20 10:03:05;;;;;;;16.97;11.10;;;-0.40;99.90;;;;;;5005882;28;20703;-67
2024/01/20 10:05:32;;;;;;;19.10;11.93;;;-0.30;99.90;;;;;;5014975;28;20785;-68
2024/01/20 10:07:58;;;;;;;16.53;10.93;;;-0.30;99.90;;;;;;5009706;28;20457;-67
2024/01/20 10:10:24;;;;;;;16.13;11.47;;;-0.20;99.90;;;;;;5008369;28;20983;-66
2024/01/20 10:12:53;;;;;;;19.23;11.80;;;-0.20;99.90;;;;;;5015227;28;20258;-67
2024/01/20 10:15:26;;;;;;;15.83;10.53;;;-0.20;99.90;;;;;;5012589;28;20529;-67
2024/01/20 10:17:53;;;;;;;17.90;11.37;;;-0.10;99.90;;;;;;5014450;28;20423;-67
2024/01/20 10:20:33;;;;;;;16.17;10.10;;;-0.10;99.90;;;;;;5011926;28;20508;-67
2024/01/20 10:23:04;;;;;;;14.20;10.00;;;-0.10;99.90;;;;;;5011139;28;20423;-67
2024/01/20 10:25:30;;;;;;;18.33;11.50;;;0.00;99.90;;;;;;5014403;28;20422;-67
2024/01/20 10:27:56;;;;;;;14.80;10.10;;;0.00;99.90;;;;;;5013565;28;20427;-65
2024/01/20 10:30:22;;;;;;;16.90;10.80;;;0.00;99.90;;;;;;5016621;28;20276;-66
2024/01/20 10:32:51;;;;;;;17.80;11.80;;;0.10;99.90;;;;;;5016749;28;20176;-66
2024/01/20 10:35:17;;;;;;;21.90;12.37;;;0.20;99.90;;;;;;5014440;28;20443;-67
2024/01/20 10:37:44;;;;;;;25.47;13.20;;;0.20;99.90;;;;;;5012940;28;20441;-66
2024/01/20 10:40:12;;;;;;;21.50;13.10;;;0.30;99.90;;;;;;5012982;28;20500;-66
2024/01/20 10:42:52;;;;;;;22.00;13.07;;;0.30;99.90;;;;;;5010883;28;20423;-66
2024/01/20 10:45:18;;;;;;;22.70;14.37;;;0.30;99.90;;;;;;5012314;28;20434;-66
2024/01/20 10:48:10;;;;;;;22.63;14.60;;;0.40;99.90;;;;;;5011068;28;20450;-66
2024/01/20 10:50:40;;;;;;;23.77;14.20;;;0.50;99.90;;;;;;5007359;28;20866;-66
2024/01/20 10:53:07;;;;;;;25.37;15.77;;;0.50;99.90;;;;;;5011254;28;20407;-66
2024/01/20 10:55:34;;;;;;;23.43;15.53;;;0.60;99.90;;;;;;5010159;28;20842;-66
2024/01/20 10:58:05;;;;;;;26.80;15.70;;;0.60;99.90;;;;;;5010892;28;20434;-66
2024/01/20 11:00:31;;;;;;;28.33;16.60;;;0.60;99.90;;;;;;5008383;28;20896;-66
2024/01/20 11:02:56;;;;;;;31.70;16.87;;;0.70;99.90;;;;;;5010391;28;20423;-66
2024/01/20 11:05:23;;;;;;;27.30;16.73;;;0.70;99.90;;;;;;5008373;28;20188;-66
2024/01/20 11:08:23;;;;;;;33.20;19.50;;;0.80;99.90;;;;;;5009725;28;20238;-66
2024/01/20 11:10:52;;;;;;;28.03;16.90;;;0.90;99.90;;;;;;5016922;28;20834;-65
2024/01/20 11:13:17;;;;;;;30.30;17.27;;;0.90;99.90;;;;;;5010816;28;20573;-66
2024/01/20 11:15:49;;;;;;;33.10;18.43;;;0.90;99.90;;;;;;5014201;28;20518;-66
2024/01/20 11:18:19;;;;;;;31.57;20.03;;;1.00;99.90;;;;;;5010765;28;20184;-66
2024/01/20 11:21:01;;;;;;;25.83;16.73;;;1.00;99.90;;;;;;5006300;28;20427;-66
2024/01/20 11:23:30;;;;;;;28.70;16.90;;;1.10;99.90;;;;;;5012026;28;20427;-66
2024/01/20 11:25:56;;;;;;;29.77;18.53;;;1.20;99.90;;;;;;5009782;28;20443;-66
2024/01/20 11:28:24;;;;;;;28.10;18.00;;;1.20;99.90;;;;;;5008595;28;20857;-66
2024/01/20 11:30:50;;;;;;;34.13;21.60;;;1.30;99.90;;;;;;5016972;28;20459;-66
2024/01/20 11:33:15;;;;;;;30.37;19.37;;;1.30;99.90;;;;;;5014936;28;20467;-66
2024/01/20 11:35:41;;;;;;;30.70;19.83;;;1.40;99.90;;;;;;5010003;28;20180;-66
2024/01/20 11:38:07;;;;;;;30.47;18.33;;;1.50;99.90;;;;;;5012601;28;20177;-66
2024/01/20 11:40:33;;;;;;;33.33;21.07;;;1.50;99.90;;;;;;5010254;28;20200;-66
2024/01/20 11:43:06;;;;;;;33.10;20.50;;;1.60;99.90;;;;;;5015315;28;20449;-67
2024/01/20 11:45:32;;;;;;;30.07;19.43;;;1.70;99.90;;;;;;5013901;28;20177;-67
2024/01/20 11:47:57;;;;;;;30.10;20.50;;;1.70;99.90;;;;;;5020207;28;20483;-65
2024/01/20 11:50:23;;;;;;;33.07;20.30;;;1.70;99.90;;;;;;5016478;28;20695;-66
2024/01/20 11:52:49;;;;;;;29.20;19.50;;;1.80;99.90;;;;;;5018509;28;20255;-66
2024/01/20 11:55:15;;;;;;;33.57;20.13;;;1.90;99.90;;;;;;5021388;28;20204;-66
2024/01/20 11:57:40;;;;;;;33.33;21.60;;;2.00;99.90;;;;;;5017892;28;20623;-66
2024/01/20 12:00:08;;;;;;;32.20;20.70;;;2.00;99.90;;;;;;5012886;28;20653;-66
2024/01/20 12:02:33;;;;;;;32.80;19.60;;;2.10;99.90;;;;;;5015944;28;20192;-65
2024/01/20 12:04:59;;;;;;;28.20;20.20;;;2.20;99.90;;;;;;5012898;28;20448;-66
2024/01/20 12:07:25;;;;;;;31.33;19.63;;;2.30;99.90;;;;;;5016602;28;20192;-66
2024/01/20 12:09:53;;;;;;;34.43;21.30;;;2.40;99.90;;;;;;5024541;28;20208;-67
2024/01/20 12:12:19;;;;;;;29.93;21.53;;;2.50;99.90;;;;;;5015216;28;20201;-66
2024/01/20 12:14:45;;;;;;;31.93;21.27;;;2.70;99.90;;;;;;5014530;28;20456;-66
2024/01/20 12:17:12;;;;;;;32.43;21.00;;;2.90;99.90;;;;;;5021053;28;20486;-67
2024/01/20 12:19:39;;;;;;;32.47;20.93;;;3.10;99.90;;;;;;5016116;28;20419;-67
2024/01/20 12:22:10;;;;;;;30.93;19.80;;;3.60;99.90;;;;;;5017688;28;21048;-66
2024/01/20 12:24:37;;;;;;;33.40;22.83;;;4.30;99.90;;;;;;5018536;28;20515;-66
2024/01/20 12:27:04;;;;;;;28.30;20.00;;;6.00;99.90;;;;;;5022710;28;20426;-66